sensor_id;sensor_type;location;lat;lon;timestamp;P1;durP1;ratioP1;P2;durP2;ratioP2
62268;SDS011;56517;51.634;5.566;2022-07-06T00:03:11;11.63;;;6.22;;
62268;SDS011;56517;51.634;5.566;2022-07-06T00:08:12;8.82;;;6.25;;
62268;SDS011;56517;51.634;5.566;2022-07-06T00:13:12;8.88;;;6.38;;
62268;SDS011;56517;51.634;5.566;2022-07-06T00:18:14;8.45;;;5.72;;
62268;SDS011;56517;51.634;5.566;2022-07-06T00:23:15;8.80;;;5.90;;
62268;SDS011;56517;51.634;5.566;2022-07-06T00:28:15;7.15;;;5.85;;
62268;SDS011;56517;51.634;5.566;2022-07-06T00:33:17;10.05;;;6.32;;
62268;SDS011;56517;51.634;5.566;2022-07-06T00:38:18;9.95;;;6.57;;
62268;SDS011;56517;51.634;5.566;2022-07-06T00:43:18;6.38;;;5.70;;
62268;SDS011;56517;51.634;5.566;2022-07-06T00:48:20;8.10;;;5.93;;
62268;SDS011;56517;51.634;5.566;2022-07-06T00:53:21;8.18;;;6.10;;
62268;SDS011;56517;51.634;5.566;2022-07-06T00:58:22;9.40;;;6.88;;
62268;SDS011;56517;51.634;5.566;2022-07-06T01:03:23;8.52;;;6.88;;
62268;SDS011;56517;51.634;5.566;2022-07-06T01:08:24;12.25;;;7.10;;
62268;SDS011;56517;51.634;5.566;2022-07-06T01:13:25;9.68;;;7.05;;
62268;SDS011;56517;51.634;5.566;2022-07-06T01:18:27;12.00;;;7.03;;
62268;SDS011;56517;51.634;5.566;2022-07-06T01:23:29;7.68;;;6.38;;
62268;SDS011;56517;51.634;5.566;2022-07-06T01:28:30;7.45;;;6.35;;
62268;SDS011;56517;51.634;5.566;2022-07-06T01:33:30;9.43;;;7.22;;
62268;SDS011;56517;51.634;5.566;2022-07-06T01:38:32;8.05;;;6.13;;
62268;SDS011;56517;51.634;5.566;2022-07-06T01:43:43;12.77;;;7.00;;
62268;SDS011;56517;51.634;5.566;2022-07-06T01:48:43;10.30;;;7.10;;
62268;SDS011;56517;51.634;5.566;2022-07-06T01:53:45;7.35;;;6.07;;
62268;SDS011;56517;51.634;5.566;2022-07-06T01:58:46;7.78;;;6.20;;
62268;SDS011;56517;51.634;5.566;2022-07-06T02:03:47;10.80;;;7.30;;
62268;SDS011;56517;51.634;5.566;2022-07-06T02:08:49;7.57;;;6.68;;
62268;SDS011;56517;51.634;5.566;2022-07-06T02:13:49;7.22;;;6.50;;
62268;SDS011;56517;51.634;5.566;2022-07-06T02:18:50;8.23;;;6.38;;
62268;SDS011;56517;51.634;5.566;2022-07-06T02:23:52;8.02;;;6.70;;
62268;SDS011;56517;51.634;5.566;2022-07-06T02:28:52;7.82;;;6.82;;
62268;SDS011;56517;51.634;5.566;2022-07-06T02:33:53;7.82;;;6.82;;
62268;SDS011;56517;51.634;5.566;2022-07-06T02:38:55;6.93;;;6.22;;
62268;SDS011;56517;51.634;5.566;2022-07-06T02:43:55;7.63;;;6.40;;
62268;SDS011;56517;51.634;5.566;2022-07-06T02:48:56;8.73;;;7.20;;
62268;SDS011;56517;51.634;5.566;2022-07-06T02:53:58;9.18;;;7.00;;
62268;SDS011;56517;51.634;5.566;2022-07-06T02:58:58;9.30;;;7.57;;
62268;SDS011;56517;51.634;5.566;2022-07-06T03:03:59;10.07;;;7.20;;
62268;SDS011;56517;51.634;5.566;2022-07-06T03:09:01;13.32;;;7.63;;
62268;SDS011;56517;51.634;5.566;2022-07-06T03:14:01;13.80;;;7.40;;
62268;SDS011;56517;51.634;5.566;2022-07-06T03:19:02;9.80;;;7.15;;
62268;SDS011;56517;51.634;5.566;2022-07-06T03:24:04;11.35;;;8.02;;
62268;SDS011;56517;51.634;5.566;2022-07-06T03:29:05;9.88;;;7.78;;
62268;SDS011;56517;51.634;5.566;2022-07-06T03:34:05;11.70;;;7.32;;
62268;SDS011;56517;51.634;5.566;2022-07-06T03:39:07;11.27;;;7.82;;
62268;SDS011;56517;51.634;5.566;2022-07-06T03:44:08;11.68;;;7.90;;
62268;SDS011;56517;51.634;5.566;2022-07-06T03:49:08;10.13;;;7.57;;
62268;SDS011;56517;51.634;5.566;2022-07-06T03:54:10;9.93;;;8.25;;
62268;SDS011;56517;51.634;5.566;2022-07-06T03:59:11;9.38;;;7.53;;
62268;SDS011;56517;51.634;5.566;2022-07-06T04:04:11;10.07;;;7.70;;
62268;SDS011;56517;51.634;5.566;2022-07-06T04:09:13;12.57;;;7.72;;
62268;SDS011;56517;51.634;5.566;2022-07-06T04:14:14;11.60;;;8.48;;
62268;SDS011;56517;51.634;5.566;2022-07-06T04:19:14;10.50;;;7.97;;
62268;SDS011;56517;51.634;5.566;2022-07-06T04:24:16;9.65;;;7.75;;
62268;SDS011;56517;51.634;5.566;2022-07-06T04:29:17;11.15;;;8.10;;
62268;SDS011;56517;51.634;5.566;2022-07-06T04:34:17;9.77;;;7.90;;
62268;SDS011;56517;51.634;5.566;2022-07-06T04:39:19;12.93;;;8.55;;
62268;SDS011;56517;51.634;5.566;2022-07-06T04:44:20;11.52;;;8.00;;
62268;SDS011;56517;51.634;5.566;2022-07-06T04:49:20;12.20;;;7.95;;
62268;SDS011;56517;51.634;5.566;2022-07-06T04:54:22;10.40;;;7.55;;
62268;SDS011;56517;51.634;5.566;2022-07-06T04:59:23;9.93;;;7.53;;
62268;SDS011;56517;51.634;5.566;2022-07-06T05:04:23;10.45;;;7.53;;
62268;SDS011;56517;51.634;5.566;2022-07-06T05:09:25;12.32;;;8.65;;
62268;SDS011;56517;51.634;5.566;2022-07-06T05:14:26;11.65;;;7.20;;
62268;SDS011;56517;51.634;5.566;2022-07-06T05:19:27;12.98;;;8.00;;
62268;SDS011;56517;51.634;5.566;2022-07-06T05:24:29;12.48;;;7.55;;
62268;SDS011;56517;51.634;5.566;2022-07-06T05:29:29;10.68;;;8.73;;
62268;SDS011;56517;51.634;5.566;2022-07-06T05:34:30;12.35;;;7.60;;
62268;SDS011;56517;51.634;5.566;2022-07-06T05:39:32;13.60;;;7.55;;
62268;SDS011;56517;51.634;5.566;2022-07-06T05:44:32;12.05;;;7.75;;
62268;SDS011;56517;51.634;5.566;2022-07-06T05:49:33;8.38;;;6.88;;
62268;SDS011;56517;51.634;5.566;2022-07-06T05:54:35;15.25;;;7.45;;
62268;SDS011;56517;51.634;5.566;2022-07-06T05:59:35;9.43;;;6.85;;
62268;SDS011;56517;51.634;5.566;2022-07-06T06:04:36;11.40;;;7.80;;
62268;SDS011;56517;51.634;5.566;2022-07-06T06:09:38;9.65;;;6.53;;
62268;SDS011;56517;51.634;5.566;2022-07-06T06:14:38;11.90;;;6.28;;
62268;SDS011;56517;51.634;5.566;2022-07-06T06:19:39;9.90;;;6.10;;
62268;SDS011;56517;51.634;5.566;2022-07-06T06:24:41;6.68;;;5.55;;
62268;SDS011;56517;51.634;5.566;2022-07-06T06:29:41;7.13;;;5.75;;
62268;SDS011;56517;51.634;5.566;2022-07-06T06:34:42;7.88;;;5.70;;
62268;SDS011;56517;51.634;5.566;2022-07-06T06:39:44;7.47;;;5.70;;
62268;SDS011;56517;51.634;5.566;2022-07-06T06:44:44;7.43;;;5.32;;
62268;SDS011;56517;51.634;5.566;2022-07-06T06:49:45;7.45;;;5.35;;
62268;SDS011;56517;51.634;5.566;2022-07-06T06:54:47;7.60;;;5.63;;
62268;SDS011;56517;51.634;5.566;2022-07-06T06:59:47;6.32;;;5.25;;
62268;SDS011;56517;51.634;5.566;2022-07-06T07:04:48;7.45;;;5.50;;
62268;SDS011;56517;51.634;5.566;2022-07-06T07:09:50;9.32;;;4.97;;
62268;SDS011;56517;51.634;5.566;2022-07-06T07:14:50;9.98;;;4.85;;
62268;SDS011;56517;51.634;5.566;2022-07-06T07:19:51;6.80;;;5.20;;
62268;SDS011;56517;51.634;5.566;2022-07-06T07:24:53;6.07;;;4.50;;
62268;SDS011;56517;51.634;5.566;2022-07-06T07:29:53;4.38;;;3.97;;
62268;SDS011;56517;51.634;5.566;2022-07-06T07:34:54;5.03;;;4.40;;
62268;SDS011;56517;51.634;5.566;2022-07-06T07:39:56;6.22;;;4.15;;
62268;SDS011;56517;51.634;5.566;2022-07-06T07:44:57;6.70;;;4.20;;
62268;SDS011;56517;51.634;5.566;2022-07-06T07:50:00;7.18;;;4.50;;
62268;SDS011;56517;51.634;5.566;2022-07-06T07:55:02;8.30;;;4.38;;
62268;SDS011;56517;51.634;5.566;2022-07-06T08:00:03;7.20;;;4.03;;
62268;SDS011;56517;51.634;5.566;2022-07-06T08:05:05;7.28;;;3.40;;
62268;SDS011;56517;51.634;5.566;2022-07-06T08:10:07;6.90;;;3.53;;
62268;SDS011;56517;51.634;5.566;2022-07-06T08:15:08;3.90;;;3.47;;
62268;SDS011;56517;51.634;5.566;2022-07-06T08:20:09;5.45;;;3.28;;
62268;SDS011;56517;51.634;5.566;2022-07-06T08:25:11;3.97;;;3.10;;
62268;SDS011;56517;51.634;5.566;2022-07-06T08:30:11;3.85;;;3.30;;
62268;SDS011;56517;51.634;5.566;2022-07-06T08:35:12;7.50;;;3.58;;
62268;SDS011;56517;51.634;5.566;2022-07-06T08:40:14;7.63;;;3.75;;
62268;SDS011;56517;51.634;5.566;2022-07-06T08:45:15;5.18;;;3.15;;
62268;SDS011;56517;51.634;5.566;2022-07-06T08:50:16;4.88;;;2.90;;
62268;SDS011;56517;51.634;5.566;2022-07-06T08:55:18;6.97;;;3.65;;
62268;SDS011;56517;51.634;5.566;2022-07-06T09:00:19;6.10;;;3.67;;
62268;SDS011;56517;51.634;5.566;2022-07-06T09:05:21;4.40;;;3.63;;
62268;SDS011;56517;51.634;5.566;2022-07-06T09:10:23;4.70;;;3.65;;
62268;SDS011;56517;51.634;5.566;2022-07-06T09:15:27;5.13;;;3.75;;
62268;SDS011;56517;51.634;5.566;2022-07-06T09:20:28;5.88;;;3.70;;
62268;SDS011;56517;51.634;5.566;2022-07-06T09:25:30;4.93;;;3.65;;
62268;SDS011;56517;51.634;5.566;2022-07-06T09:30:31;5.07;;;3.53;;
62268;SDS011;56517;51.634;5.566;2022-07-06T09:35:36;5.80;;;3.72;;
62268;SDS011;56517;51.634;5.566;2022-07-06T09:40:39;3.88;;;3.28;;
62268;SDS011;56517;51.634;5.566;2022-07-06T09:45:40;4.38;;;3.72;;
62268;SDS011;56517;51.634;5.566;2022-07-06T09:50:42;6.10;;;4.00;;
62268;SDS011;56517;51.634;5.566;2022-07-06T09:55:45;4.03;;;3.53;;
62268;SDS011;56517;51.634;5.566;2022-07-06T10:00:46;7.30;;;3.70;;
62268;SDS011;56517;51.634;5.566;2022-07-06T10:05:47;5.32;;;3.72;;
62268;SDS011;56517;51.634;5.566;2022-07-06T10:10:49;8.95;;;3.85;;
62268;SDS011;56517;51.634;5.566;2022-07-06T10:15:50;4.50;;;3.70;;
62268;SDS011;56517;51.634;5.566;2022-07-06T10:20:50;9.15;;;3.40;;
62268;SDS011;56517;51.634;5.566;2022-07-06T10:25:53;5.53;;;3.60;;
62268;SDS011;56517;51.634;5.566;2022-07-06T10:30:55;4.80;;;3.28;;
62268;SDS011;56517;51.634;5.566;2022-07-06T10:35:56;8.85;;;3.13;;
62268;SDS011;56517;51.634;5.566;2022-07-06T10:40:59;6.18;;;3.42;;
62268;SDS011;56517;51.634;5.566;2022-07-06T10:46:08;5.78;;;3.40;;
62268;SDS011;56517;51.634;5.566;2022-07-06T10:51:10;4.65;;;3.47;;
62268;SDS011;56517;51.634;5.566;2022-07-06T10:56:12;3.55;;;2.75;;
62268;SDS011;56517;51.634;5.566;2022-07-06T11:01:13;5.13;;;3.80;;
62268;SDS011;56517;51.634;5.566;2022-07-06T11:06:14;4.85;;;3.58;;
62268;SDS011;56517;51.634;5.566;2022-07-06T11:11:17;11.48;;;5.55;;
62268;SDS011;56517;51.634;5.566;2022-07-06T11:16:18;6.35;;;4.05;;
62268;SDS011;56517;51.634;5.566;2022-07-06T11:21:20;7.07;;;4.13;;
62268;SDS011;56517;51.634;5.566;2022-07-06T11:26:22;5.70;;;4.00;;
62268;SDS011;56517;51.634;5.566;2022-07-06T11:31:23;5.43;;;3.80;;
62268;SDS011;56517;51.634;5.566;2022-07-06T11:36:24;4.47;;;3.25;;
62268;SDS011;56517;51.634;5.566;2022-07-06T11:41:26;3.45;;;3.15;;
62268;SDS011;56517;51.634;5.566;2022-07-06T11:46:27;6.07;;;3.50;;
62268;SDS011;56517;51.634;5.566;2022-07-06T11:51:28;3.45;;;3.15;;
62268;SDS011;56517;51.634;5.566;2022-07-06T11:56:30;3.72;;;2.85;;
62268;SDS011;56517;51.634;5.566;2022-07-06T12:01:32;4.90;;;4.13;;
62268;SDS011;56517;51.634;5.566;2022-07-06T12:06:32;5.35;;;3.58;;
62268;SDS011;56517;51.634;5.566;2022-07-06T12:11:35;4.07;;;3.33;;
62268;SDS011;56517;51.634;5.566;2022-07-06T12:16:36;5.65;;;3.33;;
62268;SDS011;56517;51.634;5.566;2022-07-06T12:21:36;5.03;;;3.42;;
62268;SDS011;56517;51.634;5.566;2022-07-06T12:26:43;5.20;;;3.78;;
62268;SDS011;56517;51.634;5.566;2022-07-06T12:31:47;8.15;;;3.75;;
62268;SDS011;56517;51.634;5.566;2022-07-06T12:36:49;5.63;;;3.80;;
62268;SDS011;56517;51.634;5.566;2022-07-06T12:41:51;5.05;;;4.00;;
62268;SDS011;56517;51.634;5.566;2022-07-06T12:47:01;7.80;;;4.28;;
62268;SDS011;56517;51.634;5.566;2022-07-06T12:52:04;5.68;;;3.83;;
62268;SDS011;56517;51.634;5.566;2022-07-06T12:57:10;3.80;;;3.50;;
62268;SDS011;56517;51.634;5.566;2022-07-06T13:02:18;3.95;;;3.17;;
62268;SDS011;56517;51.634;5.566;2022-07-06T13:07:19;4.03;;;3.65;;
62268;SDS011;56517;51.634;5.566;2022-07-06T13:12:22;4.45;;;3.70;;
62268;SDS011;56517;51.634;5.566;2022-07-06T13:17:22;4.40;;;4.00;;
62268;SDS011;56517;51.634;5.566;2022-07-06T13:22:23;3.75;;;3.45;;
62268;SDS011;56517;51.634;5.566;2022-07-06T13:27:25;4.25;;;3.60;;
62268;SDS011;56517;51.634;5.566;2022-07-06T13:32:25;5.90;;;3.88;;
62268;SDS011;56517;51.634;5.566;2022-07-06T13:37:26;3.88;;;3.42;;
62268;SDS011;56517;51.634;5.566;2022-07-06T13:42:28;6.43;;;3.58;;
62268;SDS011;56517;51.634;5.566;2022-07-06T13:47:29;4.97;;;3.88;;
62268;SDS011;56517;51.634;5.566;2022-07-06T13:52:29;5.07;;;3.97;;
62268;SDS011;56517;51.634;5.566;2022-07-06T13:57:31;3.95;;;3.55;;
62268;SDS011;56517;51.634;5.566;2022-07-06T14:02:32;4.53;;;4.10;;
62268;SDS011;56517;51.634;5.566;2022-07-06T14:07:32;5.13;;;4.13;;
62268;SDS011;56517;51.634;5.566;2022-07-06T14:12:34;5.70;;;4.18;;
62268;SDS011;56517;51.634;5.566;2022-07-06T14:17:35;6.68;;;4.38;;
62268;SDS011;56517;51.634;5.566;2022-07-06T14:22:35;4.82;;;4.32;;
62268;SDS011;56517;51.634;5.566;2022-07-06T14:27:37;5.15;;;4.18;;
62268;SDS011;56517;51.634;5.566;2022-07-06T14:32:38;4.93;;;4.38;;
62268;SDS011;56517;51.634;5.566;2022-07-06T14:37:39;4.95;;;4.28;;
62268;SDS011;56517;51.634;5.566;2022-07-06T14:42:40;6.30;;;4.18;;
62268;SDS011;56517;51.634;5.566;2022-07-06T14:47:41;7.70;;;4.70;;
62268;SDS011;56517;51.634;5.566;2022-07-06T14:52:42;8.48;;;4.53;;
62268;SDS011;56517;51.634;5.566;2022-07-06T14:57:43;6.43;;;4.82;;
62268;SDS011;56517;51.634;5.566;2022-07-06T15:02:44;8.95;;;4.72;;
62268;SDS011;56517;51.634;5.566;2022-07-06T15:07:45;4.63;;;4.07;;
62268;SDS011;56517;51.634;5.566;2022-07-06T15:12:46;5.65;;;4.18;;
62268;SDS011;56517;51.634;5.566;2022-07-06T15:17:47;7.25;;;4.22;;
62268;SDS011;56517;51.634;5.566;2022-07-06T15:22:48;7.28;;;4.35;;
62268;SDS011;56517;51.634;5.566;2022-07-06T15:27:49;5.68;;;3.95;;
62268;SDS011;56517;51.634;5.566;2022-07-06T15:32:50;7.22;;;4.22;;
62268;SDS011;56517;51.634;5.566;2022-07-06T15:37:51;5.70;;;4.22;;
62268;SDS011;56517;51.634;5.566;2022-07-06T15:42:53;6.28;;;3.78;;
62268;SDS011;56517;51.634;5.566;2022-07-06T15:47:53;10.05;;;4.22;;
62268;SDS011;56517;51.634;5.566;2022-07-06T15:52:54;7.78;;;3.97;;
62268;SDS011;56517;51.634;5.566;2022-07-06T15:57:56;8.35;;;4.63;;
62268;SDS011;56517;51.634;5.566;2022-07-06T16:02:56;7.35;;;4.30;;
62268;SDS011;56517;51.634;5.566;2022-07-06T16:07:57;5.35;;;4.00;;
62268;SDS011;56517;51.634;5.566;2022-07-06T16:12:59;5.05;;;3.97;;
62268;SDS011;56517;51.634;5.566;2022-07-06T16:18:00;6.72;;;4.50;;
62268;SDS011;56517;51.634;5.566;2022-07-06T16:23:00;7.70;;;4.55;;
62268;SDS011;56517;51.634;5.566;2022-07-06T16:28:02;8.00;;;4.18;;
62268;SDS011;56517;51.634;5.566;2022-07-06T16:33:03;6.75;;;4.50;;
62268;SDS011;56517;51.634;5.566;2022-07-06T16:38:03;8.52;;;4.03;;
62268;SDS011;56517;51.634;5.566;2022-07-06T16:43:05;10.32;;;5.22;;
62268;SDS011;56517;51.634;5.566;2022-07-06T16:48:06;8.65;;;5.35;;
62268;SDS011;56517;51.634;5.566;2022-07-06T16:53:06;10.32;;;5.47;;
62268;SDS011;56517;51.634;5.566;2022-07-06T16:58:08;12.68;;;5.68;;
62268;SDS011;56517;51.634;5.566;2022-07-06T17:03:09;8.07;;;5.43;;
62268;SDS011;56517;51.634;5.566;2022-07-06T17:08:09;11.13;;;6.00;;
62268;SDS011;56517;51.634;5.566;2022-07-06T17:13:11;7.05;;;5.00;;
62268;SDS011;56517;51.634;5.566;2022-07-06T17:18:12;7.10;;;5.43;;
62268;SDS011;56517;51.634;5.566;2022-07-06T17:23:12;10.10;;;5.65;;
62268;SDS011;56517;51.634;5.566;2022-07-06T17:28:14;7.60;;;5.20;;
62268;SDS011;56517;51.634;5.566;2022-07-06T17:33:15;9.73;;;5.25;;
62268;SDS011;56517;51.634;5.566;2022-07-06T17:38:16;10.63;;;5.38;;
62268;SDS011;56517;51.634;5.566;2022-07-06T17:43:18;9.13;;;5.75;;
62268;SDS011;56517;51.634;5.566;2022-07-06T17:48:18;9.27;;;5.20;;
62268;SDS011;56517;51.634;5.566;2022-07-06T17:53:19;9.48;;;5.35;;
62268;SDS011;56517;51.634;5.566;2022-07-06T17:58:21;8.27;;;5.00;;
62268;SDS011;56517;51.634;5.566;2022-07-06T18:03:21;5.80;;;4.50;;
62268;SDS011;56517;51.634;5.566;2022-07-06T18:08:22;6.70;;;4.65;;
62268;SDS011;56517;51.634;5.566;2022-07-06T18:13:24;7.18;;;5.22;;
62268;SDS011;56517;51.634;5.566;2022-07-06T18:18:24;9.18;;;5.38;;
62268;SDS011;56517;51.634;5.566;2022-07-06T18:23:25;9.23;;;5.53;;
62268;SDS011;56517;51.634;5.566;2022-07-06T18:28:27;8.65;;;5.00;;
62268;SDS011;56517;51.634;5.566;2022-07-06T18:33:28;7.95;;;5.03;;
62268;SDS011;56517;51.634;5.566;2022-07-06T18:38:28;10.30;;;5.72;;
62268;SDS011;56517;51.634;5.566;2022-07-06T18:43:30;11.88;;;5.88;;
62268;SDS011;56517;51.634;5.566;2022-07-06T18:48:31;8.52;;;5.43;;
62268;SDS011;56517;51.634;5.566;2022-07-06T18:53:31;10.48;;;5.80;;
62268;SDS011;56517;51.634;5.566;2022-07-06T18:58:33;9.07;;;5.25;;
62268;SDS011;56517;51.634;5.566;2022-07-06T19:03:34;10.43;;;5.45;;
62268;SDS011;56517;51.634;5.566;2022-07-06T19:08:34;8.57;;;5.07;;
62268;SDS011;56517;51.634;5.566;2022-07-06T19:13:36;7.57;;;4.93;;
62268;SDS011;56517;51.634;5.566;2022-07-06T19:18:37;7.25;;;4.45;;
62268;SDS011;56517;51.634;5.566;2022-07-06T19:23:37;7.95;;;4.65;;
62268;SDS011;56517;51.634;5.566;2022-07-06T19:28:39;9.57;;;5.07;;
62268;SDS011;56517;51.634;5.566;2022-07-06T19:33:40;7.15;;;5.10;;
62268;SDS011;56517;51.634;5.566;2022-07-06T19:38:40;7.07;;;4.63;;
62268;SDS011;56517;51.634;5.566;2022-07-06T19:43:42;8.85;;;5.15;;
62268;SDS011;56517;51.634;5.566;2022-07-06T19:48:43;6.63;;;4.88;;
62268;SDS011;56517;51.634;5.566;2022-07-06T19:53:44;10.30;;;5.15;;
62268;SDS011;56517;51.634;5.566;2022-07-06T19:58:46;11.82;;;5.28;;
62268;SDS011;56517;51.634;5.566;2022-07-06T20:03:47;6.50;;;4.72;;
62268;SDS011;56517;51.634;5.566;2022-07-06T20:08:48;9.88;;;5.53;;
62268;SDS011;56517;51.634;5.566;2022-07-06T20:13:50;8.27;;;4.57;;
62268;SDS011;56517;51.634;5.566;2022-07-06T20:18:50;8.32;;;4.88;;
62268;SDS011;56517;51.634;5.566;2022-07-06T20:23:51;11.32;;;4.97;;
62268;SDS011;56517;51.634;5.566;2022-07-06T20:28:53;8.40;;;5.05;;
62268;SDS011;56517;51.634;5.566;2022-07-06T20:33:53;7.13;;;4.75;;
62268;SDS011;56517;51.634;5.566;2022-07-06T20:38:54;7.10;;;4.75;;
62268;SDS011;56517;51.634;5.566;2022-07-06T20:43:56;8.95;;;5.32;;
62268;SDS011;56517;51.634;5.566;2022-07-06T20:48:56;7.80;;;4.78;;
62268;SDS011;56517;51.634;5.566;2022-07-06T20:53:57;5.75;;;4.22;;
62268;SDS011;56517;51.634;5.566;2022-07-06T20:58:59;9.18;;;4.85;;
62268;SDS011;56517;51.634;5.566;2022-07-06T21:04:00;7.55;;;4.07;;
62268;SDS011;56517;51.634;5.566;2022-07-06T21:09:00;6.05;;;4.32;;
62268;SDS011;56517;51.634;5.566;2022-07-06T21:14:02;6.55;;;4.38;;
62268;SDS011;56517;51.634;5.566;2022-07-06T21:19:03;8.20;;;5.00;;
62268;SDS011;56517;51.634;5.566;2022-07-06T21:24:03;8.27;;;4.63;;
62268;SDS011;56517;51.634;5.566;2022-07-06T21:29:05;7.47;;;4.88;;
62268;SDS011;56517;51.634;5.566;2022-07-06T21:34:06;10.07;;;5.57;;
62268;SDS011;56517;51.634;5.566;2022-07-06T21:39:06;10.52;;;5.72;;
62268;SDS011;56517;51.634;5.566;2022-07-06T21:44:08;7.47;;;5.15;;
62268;SDS011;56517;51.634;5.566;2022-07-06T21:49:09;10.77;;;4.97;;
62268;SDS011;56517;51.634;5.566;2022-07-06T21:54:09;9.05;;;5.80;;
62268;SDS011;56517;51.634;5.566;2022-07-06T21:59:11;5.78;;;5.03;;
62268;SDS011;56517;51.634;5.566;2022-07-06T22:04:12;7.40;;;5.20;;
62268;SDS011;56517;51.634;5.566;2022-07-06T22:09:13;13.82;;;5.72;;
62268;SDS011;56517;51.634;5.566;2022-07-06T22:14:15;6.20;;;4.88;;
62268;SDS011;56517;51.634;5.566;2022-07-06T22:19:16;8.60;;;6.22;;
62268;SDS011;56517;51.634;5.566;2022-07-06T22:24:17;10.40;;;5.78;;
62268;SDS011;56517;51.634;5.566;2022-07-06T22:29:19;8.85;;;5.55;;
62268;SDS011;56517;51.634;5.566;2022-07-06T22:34:19;8.98;;;5.28;;
62268;SDS011;56517;51.634;5.566;2022-07-06T22:39:20;13.10;;;6.63;;
62268;SDS011;56517;51.634;5.566;2022-07-06T22:44:22;12.15;;;7.32;;
62268;SDS011;56517;51.634;5.566;2022-07-06T22:49:22;9.63;;;6.63;;
62268;SDS011;56517;51.634;5.566;2022-07-06T22:54:23;13.05;;;7.45;;
62268;SDS011;56517;51.634;5.566;2022-07-06T22:59:25;15.18;;;7.28;;
62268;SDS011;56517;51.634;5.566;2022-07-06T23:04:26;10.23;;;7.68;;
62268;SDS011;56517;51.634;5.566;2022-07-06T23:09:26;10.02;;;7.13;;
62268;SDS011;56517;51.634;5.566;2022-07-06T23:14:28;9.48;;;6.80;;
62268;SDS011;56517;51.634;5.566;2022-07-06T23:19:29;16.02;;;8.93;;
62268;SDS011;56517;51.634;5.566;2022-07-06T23:24:29;12.30;;;8.70;;
62268;SDS011;56517;51.634;5.566;2022-07-06T23:29:31;16.20;;;8.90;;
62268;SDS011;56517;51.634;5.566;2022-07-06T23:34:32;14.45;;;10.07;;
62268;SDS011;56517;51.634;5.566;2022-07-06T23:39:33;16.50;;;10.32;;
62268;SDS011;56517;51.634;5.566;2022-07-06T23:44:35;24.95;;;13.15;;
62268;SDS011;56517;51.634;5.566;2022-07-06T23:49:35;13.98;;;9.23;;
62268;SDS011;56517;51.634;5.566;2022-07-06T23:54:37;17.52;;;9.07;;
62268;SDS011;56517;51.634;5.566;2022-07-06T23:59:39;18.17;;;9.77;;
